Airfield :
LOGIN :

Register | Disclaimer

   EN    FR    IT 

 










Legend :    VFR   Marginal VFR   IFR   Intensive IFR   Very Intensive IFR
Visi :
Ceiling :
>= 8 km
>= 3000ft
5 to 8 km
1000 to 3000 ft
1500m to 5 km
500 to 1000 ft
800 to 1500m
200 to 500 ft
< 800m
< 200 ft
Symbols :   Thunderstorms  Fog  Heavy snow  Heavy precipitations  Wind > 20 kt
SIGMETs :     Misc.  Thunderstorms  Icing  Turbulence  Mountain Waves  Volcanic Ashes







- Airport Elevation : 529 ft
- IATA code : CHR
- Download approach charts


LFLX - Chateauroux

CURRENT METAR :
  • 240830Z AUTO 24008KT 220V280 9999 BKN026 BKN031 20/13 Q1021 NOSIG

EXPIRED METARs :
  • 240800Z AUTO 24007KT 190V290 9999 SCT023 19/13 Q1022 NOSIG
  • 240730Z AUTO 24007KT 200V270 CAVOK 19/13 Q1022 NOSIG
  • 240700Z AUTO 25005KT 200V280 9999 SCT028 18/13 Q1022 NOSIG
  • 240630Z AUTO 25007KT 9999 SCT028 17/13 Q1022 NOSIG
  • 240600Z AUTO 24010KT CAVOK 16/12 Q1022 NOSIG
  • 240530Z AUTO 25009KT 9999 FEW039 16/12 Q1022 NOSIG

TAF TAF LFLX
Valid from the 23 at 18:00 until the 25 at 00:00 UTC


231700Z 2318/2424 22010KT CAVOK
BECMG 2318/2320 28006KT
BECMG 2406/2408 SCT035
BECMG 2410/2412 CAVOK
TEMPO 2412/2420 28010G20KT
No reported NOTAMs for that airfield.



MET'MAP, your aeronautical weather chart ! - Copyright ORBIFLY December 2007 - Disclaimer

ORBIFLY MET'MAP TEAM :

Programming & Development : Alexandra Zaïnal
Concept & Development : Baudouin d'Aumeries
Co-Development & Prog : Marc-Olivier Méhu
Technical & hardware support : Manuel Goepfert

Contact : metmap@orbifly.com




SOURCES & CREDITS :

   NOAA